Time;durP1;ratioP1;P1;durP2;ratioP2;P2;SDS_P1;SDS_P2;PMS_P1;PMS_P2;Temp;Humidity;BMP_temperature;BMP_pressure;BME280_temperature;BME280_humidity;BME280_pressure;Samples;Min_cycle;Max_cycle;Signal;HPM_P1;HPM_P2
2023/06/08 00:00:57;;;;;;;5.00;4.50;;;18.50;99.90;;;;;;5011532;28;20535;-52
2023/06/08 00:03:23;;;;;;;7.13;4.43;;;18.50;99.90;;;;;;5010175;28;20498;-52
2023/06/08 00:05:50;;;;;;;10.47;4.70;;;18.50;99.90;;;;;;5013305;28;20558;-52
2023/06/08 00:08:17;;;;;;;4.77;4.20;;;18.50;99.90;;;;;;5015152;28;20881;-52
2023/06/08 00:10:44;;;;;;;5.73;4.00;;;18.40;99.90;;;;;;5008180;28;20547;-53
2023/06/08 00:13:11;;;;;;;4.43;4.10;;;18.40;99.90;;;;;;5005421;28;20530;-53
2023/06/08 00:15:39;;;;;;;6.30;4.50;;;18.40;99.90;;;;;;5014674;28;20530;-53
2023/06/08 00:18:08;;;;;;;4.90;4.17;;;18.30;99.90;;;;;;5014069;28;20864;-53
2023/06/08 00:20:35;;;;;;;7.17;4.40;;;18.30;99.90;;;;;;5011940;28;20515;-53
2023/06/08 00:23:03;;;;;;;8.57;4.53;;;18.20;99.90;;;;;;5013770;28;20489;-52
2023/06/08 00:25:30;;;;;;;6.57;4.83;;;18.20;99.90;;;;;;5013818;28;20475;-53
2023/06/08 00:27:56;;;;;;;8.27;4.67;;;18.10;99.90;;;;;;5010197;28;20475;-52
2023/06/08 00:30:23;;;;;;;6.43;4.10;;;18.10;99.90;;;;;;5012134;28;20547;-52
2023/06/08 00:32:49;;;;;;;5.03;4.13;;;18.00;99.90;;;;;;5014608;28;20929;-52
2023/06/08 00:35:17;;;;;;;8.43;4.00;;;18.00;99.90;;;;;;5009319;28;20942;-52
2023/06/08 00:37:44;;;;;;;7.33;5.00;;;17.90;99.90;;;;;;5012925;28;20538;-52
2023/06/08 00:40:11;;;;;;;7.53;4.60;;;17.80;99.90;;;;;;5012696;28;20525;-53
2023/06/08 00:42:38;;;;;;;4.80;4.40;;;17.70;99.90;;;;;;5010912;28;20551;-52
2023/06/08 00:45:05;;;;;;;7.13;5.00;;;17.70;99.90;;;;;;5012051;28;20562;-52
2023/06/08 00:47:32;;;;;;;7.10;4.80;;;17.60;99.90;;;;;;5012752;28;20510;-52
2023/06/08 00:49:59;;;;;;;6.53;4.67;;;17.60;99.90;;;;;;5014210;28;20535;-52
2023/06/08 00:52:27;;;;;;;4.30;4.00;;;17.60;99.90;;;;;;5011172;28;21021;-53
2023/06/08 00:54:54;;;;;;;5.60;4.70;;;17.50;99.90;;;;;;5013016;28;21064;-53
2023/06/08 00:57:21;;;;;;;6.77;4.70;;;17.40;99.90;;;;;;5011711;28;20847;-52
2023/06/08 00:59:49;;;;;;;7.77;5.30;;;17.40;99.90;;;;;;5010724;28;20459;-52
2023/06/08 01:02:16;;;;;;;11.23;4.27;;;17.30;99.90;;;;;;5012343;28;20467;-51
2023/06/08 01:04:44;;;;;;;4.67;4.23;;;17.30;99.90;;;;;;5024034;23;20505;-52
2023/06/08 01:07:19;;;;;;;4.73;4.33;;;17.20;99.90;;;;;;4992359;28;20491;-52
2023/06/08 01:09:54;;;;;;;5.77;4.90;;;17.20;99.90;;;;;;4992004;28;20480;-52
2023/06/08 01:12:29;;;;;;;12.50;4.73;;;17.20;99.90;;;;;;4993104;28;20492;-51
2023/06/08 01:15:01;;;;;;;5.83;4.67;;;17.20;99.90;;;;;;4990956;28;20667;-51
2023/06/08 01:17:35;;;;;;;5.30;4.80;;;17.20;99.90;;;;;;5005615;28;20513;-52
2023/06/08 01:20:12;;;;;;;5.13;4.60;;;17.20;99.90;;;;;;5007943;28;20480;-51
2023/06/08 01:22:53;;;;;;;12.30;4.63;;;17.10;99.90;;;;;;4995891;28;20559;-51
2023/06/08 01:25:22;;;;;;;6.10;4.90;;;17.00;99.90;;;;;;4996723;28;20488;-52
2023/06/08 01:27:49;;;;;;;7.43;5.47;;;17.00;99.90;;;;;;4991940;28;20485;-51
2023/06/08 01:30:16;;;;;;;5.60;5.00;;;17.00;1.40;;;;;;4997556;28;20561;-52
2023/06/08 01:32:43;;;;;;;6.70;4.93;;;17.00;99.90;;;;;;4994596;28;20492;-51
2023/06/08 01:35:10;;;;;;;6.00;5.50;;;16.90;99.90;;;;;;4981150;28;20940;-53
2023/06/08 01:38:00;;;;;;;7.87;5.10;;;16.90;99.90;;;;;;4990573;28;21073;-52
2023/06/08 01:40:35;;;;;;;9.07;5.13;;;16.90;99.90;;;;;;4998982;28;20482;-51
2023/06/08 01:43:03;;;;;;;4.97;4.67;;;16.80;99.90;;;;;;4993261;28;20551;-52
2023/06/08 01:45:35;;;;;;;5.23;4.70;;;16.80;99.90;;;;;;4991556;28;20548;-52
2023/06/08 01:48:04;;;;;;;8.47;5.10;;;16.70;99.90;;;;;;4991493;28;20491;-52
2023/06/08 01:50:33;;;;;;;5.57;4.50;;;16.70;99.90;;;;;;4996806;28;20953;-52
2023/06/08 01:53:01;;;;;;;6.67;5.60;;;16.70;99.90;;;;;;4997346;28;20838;-51
2023/06/08 01:55:29;;;;;;;6.50;5.37;;;16.60;99.90;;;;;;5004561;28;20472;-51
2023/06/08 01:57:56;;;;;;;8.37;5.40;;;16.60;99.90;;;;;;5003079;28;20958;-51
2023/06/08 02:00:23;;;;;;;7.57;5.00;;;16.50;99.90;;;;;;4993428;28;20502;-51
2023/06/08 02:02:49;;;;;;;6.47;5.50;;;16.50;99.90;;;;;;4992429;28;20874;-52
2023/06/08 02:05:16;;;;;;;5.13;4.73;;;16.40;99.90;;;;;;4992901;28;20485;-52
2023/06/08 02:07:44;;;;;;;7.67;4.97;;;16.30;99.90;;;;;;4983534;28;20480;-52
2023/06/08 02:10:12;;;;;;;7.00;4.73;;;16.30;99.90;;;;;;5001345;28;20496;-51
2023/06/08 02:12:41;;;;;;;6.07;5.07;;;16.30;99.90;;;;;;4992318;28;20492;-51
2023/06/08 02:15:08;;;;;;;8.27;5.50;;;16.30;99.90;;;;;;5003865;28;20491;-51
2023/06/08 02:17:35;;;;;;;7.03;5.13;;;16.30;99.90;;;;;;4999995;28;20511;-52
2023/06/08 02:20:06;;;;;;;7.23;5.00;;;16.20;99.90;;;;;;4991533;28;20878;-52
2023/06/08 02:22:33;;;;;;;8.30;5.63;;;16.10;99.90;;;;;;4992176;28;20469;-52
2023/06/08 02:24:59;;;;;;;5.87;5.30;;;16.10;99.90;;;;;;4993949;28;20519;-51
2023/06/08 02:27:27;;;;;;;6.00;5.40;;;16.10;99.90;;;;;;4989730;28;20468;-52
2023/06/08 02:29:55;;;;;;;5.47;4.87;;;16.00;99.90;;;;;;4985996;28;20465;-52
2023/06/08 02:32:22;;;;;;;6.20;4.70;;;15.90;99.90;;;;;;4997294;28;20522;-52
2023/06/08 02:34:55;;;;;;;12.67;4.60;;;15.80;99.90;;;;;;4997144;28;20524;-50
2023/06/08 02:37:22;;;;;;;8.77;4.80;;;15.80;99.90;;;;;;4989381;28;20495;-52
2023/06/08 02:39:49;;;;;;;7.70;5.07;;;15.80;99.90;;;;;;4986915;28;20499;-52
2023/06/08 02:42:16;;;;;;;8.97;4.97;;;15.70;99.90;;;;;;4986448;28;20525;-52
2023/06/08 02:44:42;;;;;;;7.73;5.00;;;15.60;99.90;;;;;;4986186;28;20490;-51
2023/06/08 02:47:10;;;;;;;5.90;5.40;;;15.60;99.90;;;;;;4997095;28;20512;-53
2023/06/08 02:49:37;;;;;;;5.73;4.93;;;15.60;99.90;;;;;;4988534;28;20495;-52
2023/06/08 02:52:04;;;;;;;5.60;5.10;;;15.60;99.90;;;;;;4999254;28;20500;-53
2023/06/08 02:54:31;;;;;;;6.57;5.00;;;15.60;99.90;;;;;;4997738;28;20985;-51
2023/06/08 02:56:58;;;;;;;6.70;5.10;;;15.60;99.90;;;;;;4985169;28;20469;-52
2023/06/08 02:59:24;;;;;;;7.30;4.80;;;15.50;99.90;;;;;;4988525;28;20461;-52
2023/06/08 03:01:53;;;;;;;5.73;4.50;;;15.50;99.90;;;;;;4996226;28;20442;-50
2023/06/08 03:04:23;;;;;;;7.03;4.70;;;15.50;99.90;;;;;;5010822;28;20476;-51
2023/06/08 03:06:53;;;;;;;5.50;5.10;;;15.40;99.90;;;;;;4991583;28;20441;-52
2023/06/08 03:09:20;;;;;;;6.87;4.80;;;15.40;99.90;;;;;;4996610;28;20487;-52
2023/06/08 03:11:47;;;;;;;9.27;4.93;;;15.30;99.90;;;;;;4993967;28;20836;-52
2023/06/08 03:14:14;;;;;;;5.40;4.90;;;15.30;99.90;;;;;;4999138;28;20515;-53
2023/06/08 03:16:41;;;;;;;15.73;5.43;;;15.20;86.20;;;;;;5002437;28;20504;-52
2023/06/08 03:19:07;;;;;;;5.93;5.33;;;15.20;60.10;;;;;;5003210;28;20507;-51
2023/06/08 03:21:38;;;;;;;4.90;4.50;;;15.20;55.10;;;;;;4992844;28;20950;-52
2023/06/08 03:24:05;;;;;;;6.53;4.70;;;15.10;50.50;;;;;;4991745;28;21009;-52
2023/06/08 03:26:31;;;;;;;5.27;4.87;;;15.10;52.00;;;;;;4992358;28;20838;-51
2023/06/08 03:28:58;;;;;;;5.07;4.57;;;15.10;56.60;;;;;;4992509;28;21034;-52
2023/06/08 03:31:24;;;;;;;16.10;5.60;;;15.20;59.10;;;;;;4989431;28;20496;-52
2023/06/08 03:33:51;;;;;;;6.57;5.17;;;15.10;54.40;;;;;;4988145;28;20523;-52
2023/06/08 03:36:18;;;;;;;6.40;5.43;;;15.10;44.90;;;;;;4999062;28;20507;-52
2023/06/08 03:38:46;;;;;;;6.40;5.30;;;15.10;32.70;;;;;;4989511;28;20465;-52
2023/06/08 03:41:13;;;;;;;8.23;4.83;;;15.10;27.90;;;;;;5011176;28;20476;-53
2023/06/08 03:43:40;;;;;;;5.13;4.73;;;15.10;24.30;;;;;;4990150;28;20488;-51
2023/06/08 03:46:07;;;;;;;13.03;5.17;;;15.20;22.10;;;;;;4990666;28;20456;-52
2023/06/08 03:48:33;;;;;;;5.00;4.50;;;15.20;90.10;;;;;;4998168;28;20563;-52
2023/06/08 03:51:00;;;;;;;5.53;5.00;;;15.10;86.80;;;;;;5005626;28;20553;-53
2023/06/08 03:53:26;;;;;;;12.10;4.80;;;15.20;78.80;;;;;;5014905;28;20500;-52
2023/06/08 03:55:54;;;;;;;6.80;4.73;;;15.20;27.20;;;;;;5006065;28;20465;-51
2023/06/08 03:58:21;;;;;;;6.90;5.37;;;15.10;28.00;;;;;;5004977;28;20454;-52
2023/06/08 04:00:49;;;;;;;6.10;5.03;;;15.20;25.20;;;;;;4994551;28;20502;-51
2023/06/08 04:03:15;;;;;;;6.33;5.13;;;15.30;31.80;;;;;;4997573;28;20464;-52
2023/06/08 04:05:42;;;;;;;7.43;4.63;;;15.40;32.40;;;;;;4994865;28;20495;-53
2023/06/08 04:08:09;;;;;;;7.83;5.17;;;15.40;36.00;;;;;;4993301;28;20479;-51
2023/06/08 04:10:35;;;;;;;6.33;5.23;;;15.40;41.20;;;;;;4993245;28;20464;-52
2023/06/08 04:13:03;;;;;;;6.07;4.83;;;15.50;51.20;;;;;;4988801;28;20466;-51
2023/06/08 04:15:30;;;;;;;7.10;5.20;;;15.50;55.00;;;;;;4993671;28;20495;-52
2023/06/08 04:17:56;;;;;;;6.77;5.27;;;15.50;55.10;;;;;;4987894;28;20503;-52
2023/06/08 04:20:23;;;;;;;7.80;5.30;;;15.60;57.80;;;;;;4988104;28;20495;-52
2023/06/08 04:22:49;;;;;;;6.10;5.40;;;15.60;56.20;;;;;;4996936;28;20480;-51
2023/06/08 04:25:16;;;;;;;7.33;5.50;;;15.70;67.40;;;;;;4990080;28;20490;-53
2023/06/08 04:27:43;;;;;;;14.60;5.30;;;15.70;64.00;;;;;;4989768;28;20515;-52
2023/06/08 04:30:11;;;;;;;8.70;5.33;;;15.80;56.20;;;;;;4992025;28;20579;-52
2023/06/08 04:32:38;;;;;;;6.33;5.00;;;15.80;60.70;;;;;;4995221;28;20496;-51
2023/06/08 04:35:05;;;;;;;7.40;5.33;;;15.90;71.80;;;;;;4993087;28;20571;-52
2023/06/08 04:37:32;;;;;;;5.97;5.47;;;15.90;72.30;;;;;;4992482;28;20461;-52
2023/06/08 04:39:58;;;;;;;5.97;5.40;;;15.90;70.60;;;;;;4993499;28;20456;-53
2023/06/08 04:42:27;;;;;;;8.17;4.80;;;16.00;79.40;;;;;;4985695;28;20552;-52
2023/06/08 04:44:53;;;;;;;6.93;6.00;;;15.90;82.30;;;;;;4992979;28;20491;-52
2023/06/08 04:47:21;;;;;;;8.57;5.50;;;16.00;88.60;;;;;;4994692;28;20484;-53
2023/06/08 04:49:48;;;;;;;6.50;5.50;;;16.10;96.00;;;;;;4993250;28;20515;-53
2023/06/08 04:52:16;;;;;;;9.13;5.57;;;16.10;99.90;;;;;;4983093;28;20890;-52
2023/06/08 04:54:42;;;;;;;10.83;5.20;;;16.20;99.90;;;;;;4993415;28;20484;-51
2023/06/08 04:57:09;;;;;;;6.40;4.77;;;16.30;99.90;;;;;;4993139;28;20497;-51
2023/06/08 04:59:37;;;;;;;5.47;5.00;;;16.40;99.90;;;;;;4992654;28;20460;-52
2023/06/08 05:02:04;;;;;;;4.87;4.50;;;16.50;99.90;;;;;;4994072;28;20563;-53
2023/06/08 05:04:32;;;;;;;5.63;5.07;;;16.60;99.90;;;;;;4991651;28;20497;-51
2023/06/08 05:06:59;;;;;;;9.13;4.77;;;16.60;99.90;;;;;;4987325;28;20504;-51
2023/06/08 05:09:25;;;;;;;7.97;4.83;;;16.70;99.90;;;;;;4992595;28;20566;-51
2023/06/08 05:11:52;;;;;;;10.13;5.73;;;16.90;99.90;;;;;;5001457;28;21004;-53
2023/06/08 05:14:19;;;;;;;8.50;4.80;;;16.90;99.90;;;;;;4992685;28;20517;-53
2023/06/08 05:16:45;;;;;;;7.33;5.37;;;17.00;99.90;;;;;;4989913;28;20468;-53
2023/06/08 05:19:13;;;;;;;8.30;5.30;;;17.10;99.90;;;;;;4988149;28;20633;-51
2023/06/08 05:21:41;;;;;;;8.00;5.50;;;17.30;99.90;;;;;;4990265;28;20499;-51
2023/06/08 05:24:08;;;;;;;13.00;5.20;;;17.40;99.90;;;;;;4988117;28;20484;-53
2023/06/08 05:26:35;;;;;;;7.73;5.27;;;17.60;99.90;;;;;;4992614;28;20464;-52
2023/06/08 05:29:02;;;;;;;6.53;6.03;;;17.70;99.90;;;;;;4993149;28;20511;-53
2023/06/08 05:31:28;;;;;;;5.83;5.00;;;17.70;99.90;;;;;;4991648;28;21102;-51
2023/06/08 05:33:55;;;;;;;5.40;4.50;;;17.90;99.90;;;;;;4988906;28;21101;-52
2023/06/08 05:36:21;;;;;;;4.73;4.33;;;18.00;99.90;;;;;;4988629;28;20492;-52
2023/06/08 05:38:49;;;;;;;4.93;4.53;;;18.10;99.90;;;;;;4984523;28;20497;-52
2023/06/08 05:41:16;;;;;;;6.07;5.50;;;18.20;99.90;;;;;;4991746;28;20453;-53
2023/06/08 05:43:43;;;;;;;7.40;5.40;;;18.40;99.90;;;;;;4985001;28;20523;-53
2023/06/08 05:46:10;;;;;;;5.47;4.97;;;18.50;99.90;;;;;;4984828;28;20461;-52
2023/06/08 05:48:37;;;;;;;5.47;5.00;;;18.60;99.90;;;;;;4987318;28;20484;-52
2023/06/08 05:51:04;;;;;;;8.27;4.33;;;18.70;99.90;;;;;;4992014;28;20544;-53
2023/06/08 05:53:30;;;;;;;7.87;4.90;;;18.90;99.90;;;;;;4990086;28;20547;-52
2023/06/08 05:55:58;;;;;;;9.63;4.90;;;19.00;99.90;;;;;;4988344;28;20951;-53
2023/06/08 05:58:25;;;;;;;4.70;4.30;;;19.20;99.90;;;;;;4988783;28;20552;-51
2023/06/08 06:00:52;;;;;;;8.03;4.73;;;19.40;99.90;;;;;;4990725;28;20488;-51
2023/06/08 06:03:21;;;;;;;5.37;4.47;;;19.50;99.90;;;;;;4988589;28;20474;-51
2023/06/08 06:05:48;;;;;;;14.93;4.50;;;19.70;99.90;;;;;;4987047;28;20479;-51
2023/06/08 06:08:15;;;;;;;5.80;5.17;;;19.80;99.90;;;;;;4996191;28;20473;-52
2023/06/08 06:10:41;;;;;;;18.23;4.33;;;19.90;99.90;;;;;;4994193;28;21240;-52
2023/06/08 06:13:09;;;;;;;10.23;4.40;;;20.00;99.90;;;;;;4991712;28;20496;-52
2023/06/08 06:15:36;;;;;;;5.00;4.50;;;20.10;99.90;;;;;;4990468;28;20520;-53
2023/06/08 06:18:02;;;;;;;5.33;4.50;;;20.20;99.90;;;;;;4989093;28;20955;-52
2023/06/08 06:20:29;;;;;;;4.90;4.40;;;20.30;99.90;;;;;;4989130;28;20907;-53
2023/06/08 06:22:56;;;;;;;4.67;4.13;;;20.30;99.90;;;;;;4992670;28;20909;-51
2023/06/08 06:25:23;;;;;;;5.03;4.63;;;20.30;99.90;;;;;;4990683;28;20511;-52
2023/06/08 06:27:49;;;;;;;6.63;4.20;;;20.30;99.90;;;;;;4995433;28;20880;-53
2023/06/08 06:30:17;;;;;;;5.23;4.73;;;20.40;99.90;;;;;;4991422;28;21010;-51
2023/06/08 06:32:44;;;;;;;8.43;4.77;;;20.30;99.90;;;;;;4989611;28;21010;-53
2023/06/08 06:35:11;;;;;;;8.27;4.60;;;20.30;99.90;;;;;;5000525;28;20483;-53
2023/06/08 06:37:38;;;;;;;6.83;4.43;;;20.20;99.90;;;;;;4989147;28;20830;-52
2023/06/08 06:40:06;;;;;;;5.50;4.77;;;20.20;99.90;;;;;;4990741;28;20727;-52
2023/06/08 06:42:33;;;;;;;6.70;4.90;;;20.30;99.90;;;;;;4990373;28;20475;-52
2023/06/08 06:45:00;;;;;;;6.53;4.80;;;20.20;99.90;;;;;;4986805;28;20593;-52
2023/06/08 06:47:28;;;;;;;6.00;5.40;;;20.30;99.90;;;;;;4987365;28;20532;-53
2023/06/08 06:49:55;;;;;;;7.70;4.10;;;20.40;99.90;;;;;;4986616;28;20489;-51
2023/06/08 06:52:22;;;;;;;4.77;4.37;;;20.50;99.90;;;;;;4992083;28;20472;-51
2023/06/08 06:54:48;;;;;;;6.40;5.50;;;20.60;99.90;;;;;;4994969;28;20591;-52
2023/06/08 06:57:15;;;;;;;6.13;4.37;;;20.80;99.90;;;;;;4989391;28;20456;-52
2023/06/08 06:59:42;;;;;;;7.27;4.90;;;20.90;99.90;;;;;;4991841;28;20488;-51
2023/06/08 07:02:08;;;;;;;14.60;5.27;;;21.10;99.90;;;;;;4991815;28;20465;-51
2023/06/08 07:04:38;;;;;;;13.40;5.30;;;21.10;99.90;;;;;;4991238;28;20524;-50
2023/06/08 07:07:05;;;;;;;9.70;5.00;;;21.20;99.90;;;;;;4986503;28;20456;-49
2023/06/08 07:09:32;;;;;;;5.60;4.93;;;21.30;99.90;;;;;;4985283;28;20496;-50
2023/06/08 07:11:58;;;;;;;6.00;5.40;;;21.50;99.90;;;;;;4989936;28;20967;-50
2023/06/08 07:14:25;;;;;;;14.43;5.27;;;21.60;99.90;;;;;;4989267;28;20535;-50
2023/06/08 07:16:51;;;;;;;13.67;4.90;;;21.70;99.90;;;;;;4991451;28;20465;-50
2023/06/08 07:19:18;;;;;;;6.63;4.80;;;21.80;99.90;;;;;;4991452;28;20488;-50
2023/06/08 07:21:46;;;;;;;5.40;4.70;;;21.90;99.90;;;;;;4991992;28;20813;-50
2023/06/08 07:24:13;;;;;;;6.90;5.30;;;22.10;99.90;;;;;;4988743;28;20485;-50
2023/06/08 07:26:39;;;;;;;5.17;4.77;;;22.20;99.90;;;;;;4988366;28;20550;-50
2023/06/08 07:29:06;;;;;;;14.47;4.87;;;22.40;99.90;;;;;;4990970;28;20448;-50
2023/06/08 07:31:32;;;;;;;14.53;4.50;;;22.50;99.90;;;;;;4990617;28;20501;-50
2023/06/08 07:33:59;;;;;;;15.83;5.27;;;22.60;99.90;;;;;;4989840;28;20489;-50
2023/06/08 07:36:28;;;;;;;5.57;5.03;;;22.80;99.90;;;;;;4991240;28;20469;-49
2023/06/08 07:38:56;;;;;;;12.57;5.40;;;22.90;99.90;;;;;;4990270;28;20465;-50
2023/06/08 07:41:24;;;;;;;5.57;5.07;;;23.00;99.90;;;;;;4987948;28;20472;-51
2023/06/08 07:43:51;;;;;;;12.20;5.70;;;23.20;99.90;;;;;;4989123;28;20539;-51
2023/06/08 07:46:17;;;;;;;5.63;5.13;;;23.30;99.90;;;;;;4991304;28;20496;-51
2023/06/08 07:48:45;;;;;;;6.83;4.70;;;23.40;99.90;;;;;;4989800;28;20488;-51
2023/06/08 07:51:11;;;;;;;4.67;4.27;;;23.40;99.90;;;;;;4980802;28;20491;-51
2023/06/08 07:53:39;;;;;;;8.87;4.47;;;23.50;99.90;;;;;;4987906;28;20903;-50
2023/06/08 07:56:07;;;;;;;4.73;4.37;;;23.60;99.90;;;;;;4986962;28;20563;-50
2023/06/08 07:58:34;;;;;;;4.67;4.27;;;23.70;99.90;;;;;;4990792;28;20471;-50
2023/06/08 08:01:02;;;;;;;6.87;5.00;;;23.90;99.90;;;;;;4988470;28;20490;-50
2023/06/08 08:03:29;;;;;;;4.63;4.23;;;24.00;99.90;;;;;;4990372;28;20489;-50
2023/06/08 08:05:56;;;;;;;15.93;4.70;;;24.00;99.90;;;;;;4986201;28;20547;-51
2023/06/08 08:08:22;;;;;;;9.60;4.83;;;24.10;99.90;;;;;;4988455;28;20511;-50
2023/06/08 08:10:49;;;;;;;9.33;6.07;;;24.00;99.90;;;;;;4987788;28;20528;-50
2023/06/08 08:13:17;;;;;;;4.33;3.93;;;24.10;99.90;;;;;;4989987;28;20500;-50
2023/06/08 08:15:45;;;;;;;9.13;4.67;;;24.10;99.90;;;;;;4990563;28;20543;-50
2023/06/08 08:18:12;;;;;;;6.13;4.60;;;24.20;99.90;;;;;;4985797;28;20469;-50
2023/06/08 08:20:39;;;;;;;6.97;4.63;;;24.20;99.90;;;;;;4987609;28;20455;-50
2023/06/08 08:23:06;;;;;;;5.70;4.27;;;24.20;99.90;;;;;;4985458;28;20472;-50
2023/06/08 08:25:34;;;;;;;7.60;4.97;;;24.30;99.90;;;;;;4988828;28;20464;-50
2023/06/08 08:28:01;;;;;;;6.17;4.87;;;24.40;99.90;;;;;;4994265;28;20464;-50
2023/06/08 08:30:30;;;;;;;5.30;4.33;;;24.50;99.90;;;;;;4992792;28;20520;-49
2023/06/08 08:32:57;;;;;;;9.47;4.70;;;24.70;99.90;;;;;;4993183;28;20467;-50
2023/06/08 08:35:28;;;;;;;6.13;4.30;;;24.80;99.90;;;;;;4989679;28;20588;-50
2023/06/08 08:37:55;;;;;;;4.60;4.30;;;24.90;99.90;;;;;;4988492;28;20466;-50
2023/06/08 08:40:21;;;;;;;4.90;4.40;;;24.90;95.40;;;;;;4988275;28;20489;-50
2023/06/08 08:42:54;;;;;;;5.23;4.73;;;25.10;99.90;;;;;;4990581;28;21030;-50
2023/06/08 08:45:27;;;;;;;4.47;4.07;;;25.20;99.90;;;;;;4990826;28;20930;-50
2023/06/08 08:47:57;;;;;;;14.97;4.50;;;25.40;99.90;;;;;;4987249;28;20894;-50
2023/06/08 08:50:25;;;;;;;10.37;4.83;;;25.60;99.90;;;;;;4990442;28;21201;-50
2023/06/08 08:52:56;;;;;;;8.60;5.90;;;25.70;87.40;;;;;;4986173;28;20527;-50
2023/06/08 08:55:27;;;;;;;10.97;4.10;;;25.70;86.70;;;;;;4986160;28;21001;-50
2023/06/08 08:57:54;;;;;;;7.97;4.87;;;25.80;95.00;;;;;;4990581;28;20470;-50
2023/06/08 09:00:22;;;;;;;14.87;4.83;;;25.90;95.50;;;;;;4995858;28;20468;-50
2023/06/08 09:02:50;;;;;;;15.37;5.83;;;26.20;94.80;;;;;;4991877;28;21131;-50
2023/06/08 09:05:18;;;;;;;4.73;4.33;;;26.30;96.50;;;;;;4993518;28;20488;-51
2023/06/08 09:07:44;;;;;;;6.57;4.27;;;26.50;75.50;;;;;;4992528;28;20484;-50
2023/06/08 09:10:19;;;;;;;7.20;4.20;;;27.00;77.30;;;;;;4988728;28;20480;-50
2023/06/08 09:12:47;;;;;;;5.70;4.60;;;26.90;22.00;;;;;;4987886;28;20883;-50
2023/06/08 09:15:16;;;;;;;10.00;4.07;;;27.20;81.40;;;;;;4993300;28;20538;-55
2023/06/08 09:17:44;;;;;;;4.60;4.13;;;27.40;73.20;;;;;;4994261;28;20484;-55
2023/06/08 09:20:11;;;;;;;10.20;4.50;;;27.30;20.20;;;;;;4994740;28;20445;-55
2023/06/08 09:22:40;;;;;;;4.73;4.07;;;27.30;81.20;;;;;;4986817;28;20456;-55
2023/06/08 09:25:07;;;;;;;7.20;4.17;;;27.40;88.20;;;;;;4991842;28;20508;-55
2023/06/08 09:27:35;;;;;;;9.77;4.10;;;27.40;20.50;;;;;;4988913;28;20493;-54
2023/06/08 09:30:01;;;;;;;4.83;4.17;;;27.30;21.20;;;;;;4987556;28;20480;-54
2023/06/08 09:32:31;;;;;;;4.63;4.00;;;27.20;82.40;;;;;;4988402;28;20547;-54
2023/06/08 09:35:01;;;;;;;5.43;4.23;;;27.40;20.40;;;;;;4989300;28;20515;-57
2023/06/08 09:37:29;;;;;;;6.03;4.10;;;27.60;87.10;;;;;;4986802;28;20461;-55
2023/06/08 09:39:58;;;;;;;6.30;3.87;;;27.80;75.50;;;;;;4985294;28;20469;-55
2023/06/08 09:42:41;;;;;;;8.27;4.60;;;28.20;20.10;;;;;;4988231;28;20461;-55
2023/06/08 09:45:10;;;;;;;9.53;4.50;;;28.60;20.70;;;;;;4989169;28;20483;-55
2023/06/08 09:47:37;;;;;;;3.87;3.53;;;28.90;21.30;;;;;;4988950;28;20472;-56
2023/06/08 09:50:07;;;;;;;6.03;4.63;;;29.20;21.40;;;;;;4988243;28;20579;-55
2023/06/08 09:52:37;;;;;;;5.23;4.07;;;28.90;22.50;;;;;;4991307;28;20468;-55
2023/06/08 09:55:06;;;;;;;4.63;3.77;;;29.20;20.80;;;;;;4982317;28;20516;-54
2023/06/08 09:57:35;;;;;;;7.63;4.23;;;29.10;20.80;;;;;;4991842;28;20504;-55
2023/06/08 10:00:14;;;;;;;5.67;4.33;;;28.90;21.80;;;;;;4987710;28;20520;-55
2023/06/08 10:02:48;;;;;;;6.53;3.63;;;28.30;22.20;;;;;;4985711;28;21020;-53
2023/06/08 10:05:17;;;;;;;3.47;3.27;;;28.50;20.30;;;;;;4981594;28;20570;-53
2023/06/08 10:07:46;;;;;;;9.40;4.10;;;28.60;79.50;;;;;;4989099;28;20971;-54
2023/06/08 10:10:18;;;;;;;5.47;4.90;;;29.00;21.00;;;;;;4983617;28;20477;-55
2023/06/08 10:12:45;;;;;;;5.13;3.63;;;29.50;21.40;;;;;;4991585;28;20914;-56
2023/06/08 10:15:12;;;;;;;10.57;4.00;;;29.60;22.70;;;;;;4987709;28;20554;-55
2023/06/08 10:17:39;;;;;;;6.90;3.23;;;29.70;22.10;;;;;;4993239;28;20503;-55
2023/06/08 10:20:07;;;;;;;3.43;3.10;;;29.70;22.00;;;;;;4992762;28;20546;-56
2023/06/08 10:22:36;;;;;;;6.17;3.77;;;29.80;23.20;;;;;;5004754;28;20447;-54
2023/06/08 10:25:04;;;;;;;7.47;3.70;;;29.50;24.50;;;;;;5009279;28;20472;-56
2023/06/08 10:27:33;;;;;;;7.13;4.10;;;30.40;24.80;;;;;;5001536;28;20448;-54
2023/06/08 10:30:00;;;;;;;6.13;3.73;;;29.90;25.70;;;;;;5011351;28;20478;-54
2023/06/08 10:32:31;;;;;;;4.63;3.57;;;29.30;23.70;;;;;;4997180;28;20499;-55
2023/06/08 10:34:59;;;;;;;2.77;2.60;;;29.10;71.80;;;;;;4983175;28;20472;-55
2023/06/08 10:37:27;;;;;;;3.90;3.60;;;28.30;23.60;;;;;;4985846;28;21003;-54
2023/06/08 10:39:54;;;;;;;7.37;3.77;;;28.80;22.30;;;;;;4992648;28;20507;-55
2023/06/08 10:42:20;;;;;;;6.27;3.93;;;29.00;23.10;;;;;;4985012;28;20550;-55
2023/06/08 10:44:55;;;;;;;8.57;3.30;;;29.60;21.70;;;;;;4993447;28;20535;-55
2023/06/08 10:47:22;;;;;;;6.20;3.47;;;30.40;26.40;;;;;;4991341;28;20456;-54
2023/06/08 10:49:56;;;;;;;10.17;4.37;;;30.20;24.70;;;;;;4983821;28;20998;-55
2023/06/08 10:52:24;;;;;;;3.77;3.43;;;31.30;28.50;;;;;;4987424;28;20801;-56
2023/06/08 10:54:54;;;;;;;4.80;3.47;;;30.90;27.60;;;;;;4989112;28;20508;-55
2023/06/08 10:57:38;;;;;;;3.47;3.17;;;30.10;26.70;;;;;;4988822;28;20896;-55
2023/06/08 11:00:43;;;;;;;4.20;3.90;;;30.20;24.70;;;;;;4990023;28;20467;-56
2023/06/08 11:03:11;;;;;;;4.40;4.10;;;29.50;24.10;;;;;;4989872;28;20464;-55
2023/06/08 11:05:40;;;;;;;5.83;3.47;;;28.80;23.40;;;;;;4987904;28;20472;-55
2023/06/08 11:08:08;;;;;;;5.13;3.40;;;28.40;21.30;;;;;;4987893;28;20518;-55
2023/06/08 11:10:39;;;;;;;7.20;3.17;;;28.20;74.50;;;;;;4990274;28;20492;-55
2023/06/08 11:13:06;;;;;;;5.70;3.97;;;28.00;20.70;;;;;;4991627;28;20519;-54
2023/06/08 11:15:35;;;;;;;6.10;4.10;;;27.70;20.30;;;;;;4990936;28;20469;-55
2023/06/08 11:18:05;;;;;;;9.97;3.73;;;27.40;71.70;;;;;;4991508;28;20484;-56
2023/06/08 11:20:32;;;;;;;4.23;3.10;;;27.40;90.20;;;;;;4988163;28;20472;-56
2023/06/08 11:23:01;;;;;;;3.63;3.43;;;27.30;72.50;;;;;;4986599;28;20465;-55
2023/06/08 11:25:27;;;;;;;4.10;3.60;;;27.30;98.80;;;;;;4988064;28;20588;-56
2023/06/08 11:27:55;;;;;;;6.17;3.87;;;27.20;98.70;;;;;;4989647;28;20992;-55
2023/06/08 11:30:23;;;;;;;9.43;3.77;;;27.20;88.10;;;;;;4987150;28;20502;-56
2023/06/08 11:32:51;;;;;;;4.07;3.77;;;27.30;84.50;;;;;;4993737;28;20488;-54
2023/06/08 11:35:21;;;;;;;7.97;4.07;;;27.80;89.90;;;;;;4990273;28;20516;-56
2023/06/08 11:37:49;;;;;;;7.93;3.93;;;28.20;75.00;;;;;;4989527;28;20469;-55
2023/06/08 11:40:16;;;;;;;8.00;4.53;;;28.80;20.80;;;;;;4988531;28;20493;-54
2023/06/08 11:42:43;;;;;;;9.20;3.90;;;29.00;23.40;;;;;;4988810;28;20473;-56
2023/06/08 11:45:12;;;;;;;5.33;3.57;;;28.90;22.20;;;;;;4984347;28;21054;-55
2023/06/08 11:47:40;;;;;;;6.43;3.93;;;28.60;23.70;;;;;;4987526;28;20468;-55
2023/06/08 11:50:07;;;;;;;4.73;4.23;;;28.30;21.80;;;;;;4987946;28;20485;-55
2023/06/08 11:52:35;;;;;;;5.73;3.57;;;27.90;72.30;;;;;;4979607;28;21089;-57
2023/06/08 11:55:11;;;;;;;4.00;3.70;;;27.60;90.30;;;;;;4989684;28;20531;-55
2023/06/08 11:57:40;;;;;;;19.17;4.60;;;27.40;99.90;;;;;;4983571;28;20456;-55
2023/06/08 12:00:09;;;;;;;4.83;4.00;;;27.20;99.90;;;;;;4985276;28;20527;-55
2023/06/08 12:02:36;;;;;;;12.13;6.60;;;27.10;99.90;;;;;;4989602;28;20480;-55
2023/06/08 12:05:03;;;;;;;4.00;3.70;;;27.00;99.90;;;;;;4991562;28;20546;-56
2023/06/08 12:07:30;;;;;;;4.50;4.10;;;27.00;99.90;;;;;;4993455;28;20464;-55
2023/06/08 12:09:59;;;;;;;7.20;4.90;;;26.90;99.70;;;;;;4991674;28;20467;-56
2023/06/08 12:12:29;;;;;;;10.97;4.20;;;26.90;99.90;;;;;;4992893;28;20498;-55
2023/06/08 12:14:56;;;;;;;11.40;6.23;;;26.90;89.50;;;;;;4991535;28;20488;-55
2023/06/08 12:17:26;;;;;;;6.87;4.37;;;26.80;99.90;;;;;;4990983;28;20460;-55
2023/06/08 12:19:53;;;;;;;14.10;8.00;;;26.80;97.70;;;;;;4993254;28;21036;-55
2023/06/08 12:22:20;;;;;;;41.07;22.87;;;26.80;99.90;;;;;;4993145;28;20946;-55
2023/06/08 12:24:47;;;;;;;4.73;4.30;;;26.80;99.90;;;;;;5010112;28;20486;-55
2023/06/08 12:27:15;;;;;;;4.00;3.57;;;26.90;99.60;;;;;;4994527;28;20491;-56
2023/06/08 12:29:42;;;;;;;4.50;3.57;;;27.00;99.90;;;;;;5002493;28;20476;-56
2023/06/08 12:32:09;;;;;;;10.77;5.80;;;27.10;99.90;;;;;;4993501;28;20906;-56
2023/06/08 12:34:35;;;;;;;14.67;7.40;;;27.10;99.90;;;;;;4991174;28;20486;-55
2023/06/08 12:37:02;;;;;;;7.60;4.70;;;27.50;99.90;;;;;;4994351;28;20491;-56
2023/06/08 12:39:29;;;;;;;4.40;4.00;;;28.00;98.20;;;;;;4997821;28;20494;-56
2023/06/08 12:41:57;;;;;;;4.97;4.40;;;28.60;96.00;;;;;;4987009;28;20485;-54
2023/06/08 12:44:25;;;;;;;5.77;3.70;;;29.00;79.10;;;;;;4990247;28;20480;-55
2023/06/08 12:46:52;;;;;;;4.23;3.50;;;29.40;20.70;;;;;;4988527;28;20465;-55
2023/06/08 12:49:19;;;;;;;8.40;5.50;;;29.60;22.60;;;;;;4988522;28;20488;-54